sensor_id;sensor_type;location;lat;lon;timestamp;P1;durP1;ratioP1;P2;durP2;ratioP2
12788;SDS011;6458;42.710;23.192;2023-06-26T00:02:15;19.20;;;17.20;;
12788;SDS011;6458;42.710;23.192;2023-06-26T00:04:42;19.87;;;17.57;;
12788;SDS011;6458;42.710;23.192;2023-06-26T00:07:08;18.43;;;16.67;;
12788;SDS011;6458;42.710;23.192;2023-06-26T00:09:36;18.23;;;16.43;;
12788;SDS011;6458;42.710;23.192;2023-06-26T00:12:03;19.20;;;17.10;;
12788;SDS011;6458;42.710;23.192;2023-06-26T00:14:30;19.63;;;17.03;;
12788;SDS011;6458;42.710;23.192;2023-06-26T00:16:57;17.60;;;15.80;;
12788;SDS011;6458;42.710;23.192;2023-06-26T00:19:24;21.70;;;16.43;;
12788;SDS011;6458;42.710;23.192;2023-06-26T00:21:50;17.87;;;15.97;;
12788;SDS011;6458;42.710;23.192;2023-06-26T00:24:17;18.63;;;15.50;;
12788;SDS011;6458;42.710;23.192;2023-06-26T00:26:46;18.77;;;16.30;;
12788;SDS011;6458;42.710;23.192;2023-06-26T00:29:13;17.57;;;15.80;;
12788;SDS011;6458;42.710;23.192;2023-06-26T00:31:39;17.30;;;15.60;;
12788;SDS011;6458;42.710;23.192;2023-06-26T00:34:06;17.53;;;15.80;;
12788;SDS011;6458;42.710;23.192;2023-06-26T00:36:33;16.67;;;15.07;;
12788;SDS011;6458;42.710;23.192;2023-06-26T00:39:00;17.80;;;16.00;;
12788;SDS011;6458;42.710;23.192;2023-06-26T00:41:28;17.67;;;15.90;;
12788;SDS011;6458;42.710;23.192;2023-06-26T00:43:56;16.07;;;14.40;;
12788;SDS011;6458;42.710;23.192;2023-06-26T00:46:23;16.77;;;15.17;;
12788;SDS011;6458;42.710;23.192;2023-06-26T00:48:50;17.33;;;15.50;;
12788;SDS011;6458;42.710;23.192;2023-06-26T00:51:17;16.97;;;15.33;;
12788;SDS011;6458;42.710;23.192;2023-06-26T00:53:44;16.73;;;15.00;;
12788;SDS011;6458;42.710;23.192;2023-06-26T00:56:11;16.60;;;14.97;;
12788;SDS011;6458;42.710;23.192;2023-06-26T00:58:38;16.00;;;14.47;;
12788;SDS011;6458;42.710;23.192;2023-06-26T01:01:06;16.30;;;13.97;;
12788;SDS011;6458;42.710;23.192;2023-06-26T01:03:33;16.53;;;15.00;;
12788;SDS011;6458;42.710;23.192;2023-06-26T01:06:02;15.90;;;14.30;;
12788;SDS011;6458;42.710;23.192;2023-06-26T01:08:29;17.37;;;14.23;;
12788;SDS011;6458;42.710;23.192;2023-06-26T01:10:56;16.97;;;15.20;;
12788;SDS011;6458;42.710;23.192;2023-06-26T01:13:22;17.00;;;15.30;;
12788;SDS011;6458;42.710;23.192;2023-06-26T01:15:49;17.50;;;15.60;;
12788;SDS011;6458;42.710;23.192;2023-06-26T01:18:17;17.37;;;15.60;;
12788;SDS011;6458;42.710;23.192;2023-06-26T01:20:44;17.87;;;16.07;;
12788;SDS011;6458;42.710;23.192;2023-06-26T01:23:12;18.13;;;16.43;;
12788;SDS011;6458;42.710;23.192;2023-06-26T01:25:41;17.97;;;16.20;;
12788;SDS011;6458;42.710;23.192;2023-06-26T01:28:14;19.27;;;16.43;;
12788;SDS011;6458;42.710;23.192;2023-06-26T01:30:42;17.87;;;15.70;;
12788;SDS011;6458;42.710;23.192;2023-06-26T01:33:10;18.23;;;16.53;;
12788;SDS011;6458;42.710;23.192;2023-06-26T01:35:37;18.83;;;17.10;;
12788;SDS011;6458;42.710;23.192;2023-06-26T01:38:13;17.63;;;15.83;;
12788;SDS011;6458;42.710;23.192;2023-06-26T01:40:40;17.40;;;15.67;;
12788;SDS011;6458;42.710;23.192;2023-06-26T01:43:07;20.30;;;16.17;;
12788;SDS011;6458;42.710;23.192;2023-06-26T01:45:38;18.27;;;16.50;;
12788;SDS011;6458;42.710;23.192;2023-06-26T01:48:06;19.27;;;17.33;;
12788;SDS011;6458;42.710;23.192;2023-06-26T01:50:33;22.03;;;17.73;;
12788;SDS011;6458;42.710;23.192;2023-06-26T01:53:02;20.10;;;18.20;;
12788;SDS011;6458;42.710;23.192;2023-06-26T01:55:31;18.27;;;16.47;;
12788;SDS011;6458;42.710;23.192;2023-06-26T01:58:01;18.20;;;16.40;;
12788;SDS011;6458;42.710;23.192;2023-06-26T02:00:27;19.40;;;17.30;;
12788;SDS011;6458;42.710;23.192;2023-06-26T02:02:56;18.60;;;16.60;;
12788;SDS011;6458;42.710;23.192;2023-06-26T02:05:24;17.87;;;16.17;;
12788;SDS011;6458;42.710;23.192;2023-06-26T02:07:50;18.70;;;17.00;;
12788;SDS011;6458;42.710;23.192;2023-06-26T02:10:17;18.23;;;16.33;;
12788;SDS011;6458;42.710;23.192;2023-06-26T02:12:44;18.87;;;17.07;;
12788;SDS011;6458;42.710;23.192;2023-06-26T02:15:11;19.73;;;17.30;;
12788;SDS011;6458;42.710;23.192;2023-06-26T02:17:38;18.33;;;16.40;;
12788;SDS011;6458;42.710;23.192;2023-06-26T02:20:07;19.73;;;17.37;;
12788;SDS011;6458;42.710;23.192;2023-06-26T02:22:35;21.93;;;17.10;;
12788;SDS011;6458;42.710;23.192;2023-06-26T02:25:02;19.30;;;17.37;;
12788;SDS011;6458;42.710;23.192;2023-06-26T02:27:28;18.33;;;16.50;;
12788;SDS011;6458;42.710;23.192;2023-06-26T02:29:57;19.57;;;17.00;;
12788;SDS011;6458;42.710;23.192;2023-06-26T02:32:24;20.87;;;18.63;;
12788;SDS011;6458;42.710;23.192;2023-06-26T02:34:51;20.30;;;18.10;;
12788;SDS011;6458;42.710;23.192;2023-06-26T02:37:19;21.03;;;18.53;;
12788;SDS011;6458;42.710;23.192;2023-06-26T02:39:46;21.83;;;19.53;;
12788;SDS011;6458;42.710;23.192;2023-06-26T02:42:12;24.40;;;19.03;;
12788;SDS011;6458;42.710;23.192;2023-06-26T02:44:39;22.33;;;18.87;;
12788;SDS011;6458;42.710;23.192;2023-06-26T02:47:06;21.70;;;19.43;;
12788;SDS011;6458;42.710;23.192;2023-06-26T02:49:33;22.73;;;20.33;;
12788;SDS011;6458;42.710;23.192;2023-06-26T02:51:59;22.83;;;20.30;;
12788;SDS011;6458;42.710;23.192;2023-06-26T02:54:27;24.80;;;21.40;;
12788;SDS011;6458;42.710;23.192;2023-06-26T02:56:54;23.07;;;19.97;;
12788;SDS011;6458;42.710;23.192;2023-06-26T02:59:21;22.97;;;20.73;;
12788;SDS011;6458;42.710;23.192;2023-06-26T03:01:48;24.13;;;21.57;;
12788;SDS011;6458;42.710;23.192;2023-06-26T03:04:14;24.10;;;21.63;;
12788;SDS011;6458;42.710;23.192;2023-06-26T03:06:42;24.17;;;21.73;;
12788;SDS011;6458;42.710;23.192;2023-06-26T03:09:09;23.20;;;20.87;;
12788;SDS011;6458;42.710;23.192;2023-06-26T03:11:37;26.23;;;23.37;;
12788;SDS011;6458;42.710;23.192;2023-06-26T03:14:04;25.53;;;22.83;;
12788;SDS011;6458;42.710;23.192;2023-06-26T03:16:31;23.70;;;21.20;;
12788;SDS011;6458;42.710;23.192;2023-06-26T03:18:57;25.80;;;23.17;;
12788;SDS011;6458;42.710;23.192;2023-06-26T03:21:24;25.50;;;22.33;;
12788;SDS011;6458;42.710;23.192;2023-06-26T03:23:51;24.73;;;22.17;;
12788;SDS011;6458;42.710;23.192;2023-06-26T03:26:17;24.23;;;21.70;;
12788;SDS011;6458;42.710;23.192;2023-06-26T03:28:46;26.27;;;22.10;;
12788;SDS011;6458;42.710;23.192;2023-06-26T03:31:12;25.23;;;22.53;;
12788;SDS011;6458;42.710;23.192;2023-06-26T03:33:39;24.23;;;21.60;;
12788;SDS011;6458;42.710;23.192;2023-06-26T03:36:06;22.47;;;20.17;;
12788;SDS011;6458;42.710;23.192;2023-06-26T03:38:33;21.90;;;19.60;;
12788;SDS011;6458;42.710;23.192;2023-06-26T03:40:59;20.47;;;18.30;;
12788;SDS011;6458;42.710;23.192;2023-06-26T03:43:26;20.90;;;18.83;;
12788;SDS011;6458;42.710;23.192;2023-06-26T03:45:54;21.70;;;19.50;;
12788;SDS011;6458;42.710;23.192;2023-06-26T03:48:21;20.50;;;18.60;;
12788;SDS011;6458;42.710;23.192;2023-06-26T03:50:48;21.13;;;18.93;;
12788;SDS011;6458;42.710;23.192;2023-06-26T03:53:15;21.13;;;18.93;;
12788;SDS011;6458;42.710;23.192;2023-06-26T03:55:42;21.20;;;18.97;;
12788;SDS011;6458;42.710;23.192;2023-06-26T03:58:08;20.80;;;18.80;;
12788;SDS011;6458;42.710;23.192;2023-06-26T04:00:35;19.90;;;17.80;;
12788;SDS011;6458;42.710;23.192;2023-06-26T04:03:03;20.73;;;18.80;;
12788;SDS011;6458;42.710;23.192;2023-06-26T04:05:30;19.33;;;17.37;;
12788;SDS011;6458;42.710;23.192;2023-06-26T04:07:57;19.60;;;17.80;;
12788;SDS011;6458;42.710;23.192;2023-06-26T04:10:23;18.57;;;16.77;;
12788;SDS011;6458;42.710;23.192;2023-06-26T04:12:50;18.17;;;16.57;;
12788;SDS011;6458;42.710;23.192;2023-06-26T04:15:17;18.37;;;16.60;;
12788;SDS011;6458;42.710;23.192;2023-06-26T04:17:43;17.57;;;16.07;;
12788;SDS011;6458;42.710;23.192;2023-06-26T04:20:12;16.50;;;15.10;;
12788;SDS011;6458;42.710;23.192;2023-06-26T04:22:39;16.13;;;14.47;;
12788;SDS011;6458;42.710;23.192;2023-06-26T04:25:06;15.57;;;14.27;;
12788;SDS011;6458;42.710;23.192;2023-06-26T04:27:33;15.83;;;14.43;;
12788;SDS011;6458;42.710;23.192;2023-06-26T04:29:59;14.30;;;12.97;;
12788;SDS011;6458;42.710;23.192;2023-06-26T04:32:26;14.47;;;13.27;;
12788;SDS011;6458;42.710;23.192;2023-06-26T04:34:53;15.13;;;13.93;;
12788;SDS011;6458;42.710;23.192;2023-06-26T04:37:21;13.80;;;12.60;;
12788;SDS011;6458;42.710;23.192;2023-06-26T04:39:49;13.97;;;12.87;;
12788;SDS011;6458;42.710;23.192;2023-06-26T04:42:16;13.67;;;12.63;;
12788;SDS011;6458;42.710;23.192;2023-06-26T04:44:44;13.60;;;12.60;;
12788;SDS011;6458;42.710;23.192;2023-06-26T04:47:11;14.73;;;13.63;;
12788;SDS011;6458;42.710;23.192;2023-06-26T04:49:40;13.77;;;12.60;;
12788;SDS011;6458;42.710;23.192;2023-06-26T04:52:08;13.87;;;12.70;;
12788;SDS011;6458;42.710;23.192;2023-06-26T04:54:36;14.20;;;13.00;;
12788;SDS011;6458;42.710;23.192;2023-06-26T04:57:03;14.23;;;12.93;;
12788;SDS011;6458;42.710;23.192;2023-06-26T04:59:30;13.23;;;12.13;;
12788;SDS011;6458;42.710;23.192;2023-06-26T05:01:56;13.63;;;12.43;;
12788;SDS011;6458;42.710;23.192;2023-06-26T05:04:23;13.63;;;12.63;;
12788;SDS011;6458;42.710;23.192;2023-06-26T05:06:50;13.97;;;12.70;;
12788;SDS011;6458;42.710;23.192;2023-06-26T05:09:16;13.67;;;12.60;;
12788;SDS011;6458;42.710;23.192;2023-06-26T05:11:45;14.80;;;13.40;;
12788;SDS011;6458;42.710;23.192;2023-06-26T05:14:11;14.70;;;13.33;;
12788;SDS011;6458;42.710;23.192;2023-06-26T05:16:38;14.17;;;13.00;;
12788;SDS011;6458;42.710;23.192;2023-06-26T05:19:05;13.80;;;12.50;;
12788;SDS011;6458;42.710;23.192;2023-06-26T05:21:32;13.40;;;12.20;;
12788;SDS011;6458;42.710;23.192;2023-06-26T05:24:01;13.70;;;12.70;;
12788;SDS011;6458;42.710;23.192;2023-06-26T05:26:29;13.67;;;12.43;;
12788;SDS011;6458;42.710;23.192;2023-06-26T05:28:58;14.23;;;12.93;;
12788;SDS011;6458;42.710;23.192;2023-06-26T05:31:25;14.23;;;13.03;;
12788;SDS011;6458;42.710;23.192;2023-06-26T05:33:51;14.57;;;13.37;;
12788;SDS011;6458;42.710;23.192;2023-06-26T05:36:20;14.10;;;13.00;;
12788;SDS011;6458;42.710;23.192;2023-06-26T05:38:48;14.20;;;12.93;;
12788;SDS011;6458;42.710;23.192;2023-06-26T05:41:15;14.77;;;13.57;;
12788;SDS011;6458;42.710;23.192;2023-06-26T05:43:42;13.97;;;12.97;;
12788;SDS011;6458;42.710;23.192;2023-06-26T05:46:10;15.37;;;14.17;;
12788;SDS011;6458;42.710;23.192;2023-06-26T05:48:37;16.23;;;14.73;;
12788;SDS011;6458;42.710;23.192;2023-06-26T05:51:04;15.40;;;14.10;;
12788;SDS011;6458;42.710;23.192;2023-06-26T05:53:31;14.57;;;13.37;;
12788;SDS011;6458;42.710;23.192;2023-06-26T05:55:58;14.87;;;13.67;;
12788;SDS011;6458;42.710;23.192;2023-06-26T05:58:25;14.33;;;13.13;;
12788;SDS011;6458;42.710;23.192;2023-06-26T06:00:52;14.37;;;13.13;;
12788;SDS011;6458;42.710;23.192;2023-06-26T06:03:21;14.73;;;13.37;;
12788;SDS011;6458;42.710;23.192;2023-06-26T06:05:47;14.10;;;13.00;;
12788;SDS011;6458;42.710;23.192;2023-06-26T06:08:14;14.00;;;12.70;;
12788;SDS011;6458;42.710;23.192;2023-06-26T06:10:41;13.70;;;12.50;;
12788;SDS011;6458;42.710;23.192;2023-06-26T06:13:07;13.90;;;12.80;;
12788;SDS011;6458;42.710;23.192;2023-06-26T06:15:34;13.57;;;12.47;;
12788;SDS011;6458;42.710;23.192;2023-06-26T06:18:01;14.73;;;13.43;;
12788;SDS011;6458;42.710;23.192;2023-06-26T06:20:29;14.80;;;13.37;;
12788;SDS011;6458;42.710;23.192;2023-06-26T06:22:56;14.17;;;12.87;;
12788;SDS011;6458;42.710;23.192;2023-06-26T06:25:22;12.63;;;11.73;;
12788;SDS011;6458;42.710;23.192;2023-06-26T06:27:49;13.70;;;12.60;;
12788;SDS011;6458;42.710;23.192;2023-06-26T06:30:16;12.87;;;11.80;;
12788;SDS011;6458;42.710;23.192;2023-06-26T06:32:42;11.83;;;10.93;;
12788;SDS011;6458;42.710;23.192;2023-06-26T06:35:09;12.20;;;11.20;;
12788;SDS011;6458;42.710;23.192;2023-06-26T06:37:38;11.57;;;10.67;;
12788;SDS011;6458;42.710;23.192;2023-06-26T06:40:05;11.83;;;10.83;;
12788;SDS011;6458;42.710;23.192;2023-06-26T06:42:33;11.90;;;10.87;;
12788;SDS011;6458;42.710;23.192;2023-06-26T06:45:01;11.80;;;10.90;;
12788;SDS011;6458;42.710;23.192;2023-06-26T06:47:28;10.83;;;10.03;;
12788;SDS011;6458;42.710;23.192;2023-06-26T06:49:54;10.70;;;9.80;;
12788;SDS011;6458;42.710;23.192;2023-06-26T06:52:21;11.13;;;10.30;;
12788;SDS011;6458;42.710;23.192;2023-06-26T06:54:53;11.10;;;10.30;;
12788;SDS011;6458;42.710;23.192;2023-06-26T06:57:19;10.90;;;9.90;;
12788;SDS011;6458;42.710;23.192;2023-06-26T06:59:47;10.60;;;9.77;;
12788;SDS011;6458;42.710;23.192;2023-06-26T07:02:13;10.93;;;10.13;;
12788;SDS011;6458;42.710;23.192;2023-06-26T07:04:40;9.80;;;9.10;;
12788;SDS011;6458;42.710;23.192;2023-06-26T07:07:07;8.87;;;8.27;;
12788;SDS011;6458;42.710;23.192;2023-06-26T07:09:35;9.60;;;8.87;;
12788;SDS011;6458;42.710;23.192;2023-06-26T07:12:03;9.57;;;8.87;;
12788;SDS011;6458;42.710;23.192;2023-06-26T07:14:30;9.87;;;9.07;;
12788;SDS011;6458;42.710;23.192;2023-06-26T07:16:57;9.30;;;8.60;;
12788;SDS011;6458;42.710;23.192;2023-06-26T07:19:23;9.50;;;8.60;;
12788;SDS011;6458;42.710;23.192;2023-06-26T07:21:50;9.17;;;8.57;;
12788;SDS011;6458;42.710;23.192;2023-06-26T07:24:16;8.67;;;8.17;;
12788;SDS011;6458;42.710;23.192;2023-06-26T07:26:43;8.33;;;7.73;;
12788;SDS011;6458;42.710;23.192;2023-06-26T07:29:11;7.57;;;7.07;;
12788;SDS011;6458;42.710;23.192;2023-06-26T07:31:38;7.17;;;6.77;;
12788;SDS011;6458;42.710;23.192;2023-06-26T07:34:05;8.33;;;7.67;;
12788;SDS011;6458;42.710;23.192;2023-06-26T07:36:31;8.67;;;7.87;;
12788;SDS011;6458;42.710;23.192;2023-06-26T07:38:58;7.77;;;7.10;;
12788;SDS011;6458;42.710;23.192;2023-06-26T07:41:25;7.67;;;7.07;;
12788;SDS011;6458;42.710;23.192;2023-06-26T07:43:54;7.70;;;7.10;;
12788;SDS011;6458;42.710;23.192;2023-06-26T07:46:22;7.37;;;6.87;;
12788;SDS011;6458;42.710;23.192;2023-06-26T07:48:49;7.13;;;6.73;;
12788;SDS011;6458;42.710;23.192;2023-06-26T07:51:16;7.53;;;6.83;;
12788;SDS011;6458;42.710;23.192;2023-06-26T07:53:43;6.87;;;6.47;;
12788;SDS011;6458;42.710;23.192;2023-06-26T07:56:09;9.10;;;7.47;;
12788;SDS011;6458;42.710;23.192;2023-06-26T07:58:36;7.10;;;6.70;;
12788;SDS011;6458;42.710;23.192;2023-06-26T08:01:03;7.83;;;7.23;;
12788;SDS011;6458;42.710;23.192;2023-06-26T08:03:31;7.90;;;7.30;;
12788;SDS011;6458;42.710;23.192;2023-06-26T08:05:57;6.83;;;6.33;;
12788;SDS011;6458;42.710;23.192;2023-06-26T08:08:24;7.37;;;6.97;;
12788;SDS011;6458;42.710;23.192;2023-06-26T08:10:51;7.13;;;6.70;;
12788;SDS011;6458;42.710;23.192;2023-06-26T08:13:17;7.77;;;7.07;;
12788;SDS011;6458;42.710;23.192;2023-06-26T08:15:44;7.50;;;6.90;;
12788;SDS011;6458;42.710;23.192;2023-06-26T08:18:11;6.57;;;6.07;;
12788;SDS011;6458;42.710;23.192;2023-06-26T08:20:39;6.37;;;5.87;;
12788;SDS011;6458;42.710;23.192;2023-06-26T08:23:06;6.70;;;6.30;;
12788;SDS011;6458;42.710;23.192;2023-06-26T08:25:33;5.77;;;5.37;;
12788;SDS011;6458;42.710;23.192;2023-06-26T08:28:00;5.83;;;5.43;;
12788;SDS011;6458;42.710;23.192;2023-06-26T08:30:26;5.80;;;5.50;;
12788;SDS011;6458;42.710;23.192;2023-06-26T08:32:53;6.13;;;5.73;;
12788;SDS011;6458;42.710;23.192;2023-06-26T08:35:20;5.70;;;5.40;;
12788;SDS011;6458;42.710;23.192;2023-06-26T08:37:48;5.53;;;5.23;;
12788;SDS011;6458;42.710;23.192;2023-06-26T08:40:16;5.37;;;4.97;;
12788;SDS011;6458;42.710;23.192;2023-06-26T08:42:43;5.93;;;5.53;;
12788;SDS011;6458;42.710;23.192;2023-06-26T08:45:11;6.30;;;5.80;;
12788;SDS011;6458;42.710;23.192;2023-06-26T08:47:39;6.47;;;5.93;;
12788;SDS011;6458;42.710;23.192;2023-06-26T08:50:07;5.87;;;5.37;;
12788;SDS011;6458;42.710;23.192;2023-06-26T08:52:35;5.80;;;5.40;;
12788;SDS011;6458;42.710;23.192;2023-06-26T08:55:06;7.40;;;5.60;;
12788;SDS011;6458;42.710;23.192;2023-06-26T08:57:34;4.77;;;4.47;;
12788;SDS011;6458;42.710;23.192;2023-06-26T09:00:02;7.47;;;5.70;;
12788;SDS011;6458;42.710;23.192;2023-06-26T09:02:29;5.70;;;5.27;;
12788;SDS011;6458;42.710;23.192;2023-06-26T09:04:56;6.17;;;5.57;;
12788;SDS011;6458;42.710;23.192;2023-06-26T09:07:22;5.67;;;5.27;;
12788;SDS011;6458;42.710;23.192;2023-06-26T09:09:49;6.13;;;5.73;;
12788;SDS011;6458;42.710;23.192;2023-06-26T09:12:17;6.40;;;5.90;;
12788;SDS011;6458;42.710;23.192;2023-06-26T09:14:44;6.07;;;5.73;;
12788;SDS011;6458;42.710;23.192;2023-06-26T09:17:10;6.07;;;5.67;;
12788;SDS011;6458;42.710;23.192;2023-06-26T09:19:39;6.00;;;5.47;;
12788;SDS011;6458;42.710;23.192;2023-06-26T09:22:10;6.40;;;5.90;;
12788;SDS011;6458;42.710;23.192;2023-06-26T09:24:37;5.87;;;5.47;;
12788;SDS011;6458;42.710;23.192;2023-06-26T09:27:04;6.27;;;5.87;;
12788;SDS011;6458;42.710;23.192;2023-06-26T09:29:33;5.40;;;5.00;;
12788;SDS011;6458;42.710;23.192;2023-06-26T09:32:00;6.17;;;5.60;;
12788;SDS011;6458;42.710;23.192;2023-06-26T09:34:30;5.87;;;5.37;;
12788;SDS011;6458;42.710;23.192;2023-06-26T09:36:57;6.67;;;5.90;;
12788;SDS011;6458;42.710;23.192;2023-06-26T09:39:24;6.33;;;5.93;;
12788;SDS011;6458;42.710;23.192;2023-06-26T09:41:50;5.97;;;5.67;;
12788;SDS011;6458;42.710;23.192;2023-06-26T09:44:17;6.00;;;5.60;;
12788;SDS011;6458;42.710;23.192;2023-06-26T09:46:46;6.23;;;5.77;;
12788;SDS011;6458;42.710;23.192;2023-06-26T09:49:12;6.53;;;6.13;;
12788;SDS011;6458;42.710;23.192;2023-06-26T09:51:39;6.87;;;6.20;;
12788;SDS011;6458;42.710;23.192;2023-06-26T09:54:07;6.77;;;6.30;;
12788;SDS011;6458;42.710;23.192;2023-06-26T09:56:34;6.77;;;6.37;;
12788;SDS011;6458;42.710;23.192;2023-06-26T09:59:02;6.40;;;5.77;;
12788;SDS011;6458;42.710;23.192;2023-06-26T10:01:29;6.00;;;5.53;;
12788;SDS011;6458;42.710;23.192;2023-06-26T10:03:57;5.77;;;5.40;;
12788;SDS011;6458;42.710;23.192;2023-06-26T10:06:26;6.10;;;5.53;;
12788;SDS011;6458;42.710;23.192;2023-06-26T10:08:53;6.87;;;6.00;;
12788;SDS011;6458;42.710;23.192;2023-06-26T10:11:21;6.50;;;6.00;;
12788;SDS011;6458;42.710;23.192;2023-06-26T10:13:49;6.57;;;6.17;;
12788;SDS011;6458;42.710;23.192;2023-06-26T10:16:17;6.33;;;5.73;;
12788;SDS011;6458;42.710;23.192;2023-06-26T10:18:46;6.30;;;5.90;;
12788;SDS011;6458;42.710;23.192;2023-06-26T10:21:14;6.33;;;5.83;;
12788;SDS011;6458;42.710;23.192;2023-06-26T10:23:41;6.23;;;5.73;;
12788;SDS011;6458;42.710;23.192;2023-06-26T10:26:09;6.00;;;5.60;;
12788;SDS011;6458;42.710;23.192;2023-06-26T10:28:36;6.20;;;5.80;;
12788;SDS011;6458;42.710;23.192;2023-06-26T10:31:03;6.37;;;5.87;;
12788;SDS011;6458;42.710;23.192;2023-06-26T10:33:32;5.77;;;5.37;;
12788;SDS011;6458;42.710;23.192;2023-06-26T10:36:12;6.40;;;5.90;;
12788;SDS011;6458;42.710;23.192;2023-06-26T10:38:50;5.93;;;5.60;;
12788;SDS011;6458;42.710;23.192;2023-06-26T10:41:19;5.97;;;5.57;;
12788;SDS011;6458;42.710;23.192;2023-06-26T10:43:46;6.73;;;6.13;;
12788;SDS011;6458;42.710;23.192;2023-06-26T10:46:15;6.67;;;6.23;;
12788;SDS011;6458;42.710;23.192;2023-06-26T10:48:55;5.47;;;5.17;;
12788;SDS011;6458;42.710;23.192;2023-06-26T10:51:22;6.17;;;5.67;;
12788;SDS011;6458;42.710;23.192;2023-06-26T10:53:54;6.07;;;5.77;;
12788;SDS011;6458;42.710;23.192;2023-06-26T10:56:21;6.97;;;6.47;;
12788;SDS011;6458;42.710;23.192;2023-06-26T10:58:48;6.33;;;5.93;;
12788;SDS011;6458;42.710;23.192;2023-06-26T11:01:18;6.63;;;6.13;;
12788;SDS011;6458;42.710;23.192;2023-06-26T11:03:46;6.77;;;6.23;;
12788;SDS011;6458;42.710;23.192;2023-06-26T11:06:15;6.00;;;5.60;;
12788;SDS011;6458;42.710;23.192;2023-06-26T11:08:44;6.00;;;5.60;;
12788;SDS011;6458;42.710;23.192;2023-06-26T11:11:13;5.50;;;5.20;;
12788;SDS011;6458;42.710;23.192;2023-06-26T11:13:40;5.43;;;5.13;;
12788;SDS011;6458;42.710;23.192;2023-06-26T11:16:07;5.60;;;5.20;;
12788;SDS011;6458;42.710;23.192;2023-06-26T11:18:33;5.70;;;5.30;;
12788;SDS011;6458;42.710;23.192;2023-06-26T11:21:07;6.03;;;5.53;;
12788;SDS011;6458;42.710;23.192;2023-06-26T11:23:34;5.80;;;5.40;;
12788;SDS011;6458;42.710;23.192;2023-06-26T11:26:15;6.23;;;5.83;;
12788;SDS011;6458;42.710;23.192;2023-06-26T11:28:48;6.03;;;5.60;;
12788;SDS011;6458;42.710;23.192;2023-06-26T11:31:24;6.33;;;5.90;;
12788;SDS011;6458;42.710;23.192;2023-06-26T11:33:51;7.00;;;6.13;;
12788;SDS011;6458;42.710;23.192;2023-06-26T11:36:17;6.50;;;6.10;;
12788;SDS011;6458;42.710;23.192;2023-06-26T11:38:44;5.90;;;5.50;;
12788;SDS011;6458;42.710;23.192;2023-06-26T11:41:16;5.97;;;5.57;;
12788;SDS011;6458;42.710;23.192;2023-06-26T11:43:43;6.20;;;5.80;;
12788;SDS011;6458;42.710;23.192;2023-06-26T11:46:10;6.57;;;5.87;;
12788;SDS011;6458;42.710;23.192;2023-06-26T11:48:36;6.20;;;5.70;;
12788;SDS011;6458;42.710;23.192;2023-06-26T11:51:04;6.50;;;6.00;;
12788;SDS011;6458;42.710;23.192;2023-06-26T11:53:30;6.47;;;6.07;;
12788;SDS011;6458;42.710;23.192;2023-06-26T11:55:57;6.57;;;6.17;;
12788;SDS011;6458;42.710;23.192;2023-06-26T11:58:25;5.83;;;5.40;;
12788;SDS011;6458;42.710;23.192;2023-06-26T12:00:52;5.83;;;5.43;;
12788;SDS011;6458;42.710;23.192;2023-06-26T12:03:18;5.97;;;5.43;;
12788;SDS011;6458;42.710;23.192;2023-06-26T12:05:45;5.53;;;5.13;;
12788;SDS011;6458;42.710;23.192;2023-06-26T12:08:12;5.70;;;5.30;;
12788;SDS011;6458;42.710;23.192;2023-06-26T12:10:39;5.77;;;5.37;;
12788;SDS011;6458;42.710;23.192;2023-06-26T12:13:07;5.40;;;5.00;;
12788;SDS011;6458;42.710;23.192;2023-06-26T12:15:35;6.10;;;5.70;;
12788;SDS011;6458;42.710;23.192;2023-06-26T12:18:07;5.77;;;5.47;;
12788;SDS011;6458;42.710;23.192;2023-06-26T12:20:39;5.87;;;5.27;;
12788;SDS011;6458;42.710;23.192;2023-06-26T12:23:11;6.20;;;5.80;;
12788;SDS011;6458;42.710;23.192;2023-06-26T12:25:37;6.63;;;6.13;;
12788;SDS011;6458;42.710;23.192;2023-06-26T12:28:08;6.20;;;5.80;;
12788;SDS011;6458;42.710;23.192;2023-06-26T12:30:47;6.37;;;5.90;;
12788;SDS011;6458;42.710;23.192;2023-06-26T12:33:14;6.50;;;6.00;;
12788;SDS011;6458;42.710;23.192;2023-06-26T12:35:41;6.30;;;5.87;;
12788;SDS011;6458;42.710;23.192;2023-06-26T12:38:10;6.40;;;5.80;;
12788;SDS011;6458;42.710;23.192;2023-06-26T12:40:44;6.43;;;6.03;;
12788;SDS011;6458;42.710;23.192;2023-06-26T12:43:11;6.10;;;5.60;;
12788;SDS011;6458;42.710;23.192;2023-06-26T12:45:37;5.93;;;5.10;;
12788;SDS011;6458;42.710;23.192;2023-06-26T12:48:11;6.23;;;5.67;;
12788;SDS011;6458;42.710;23.192;2023-06-26T12:50:43;6.00;;;5.60;;
12788;SDS011;6458;42.710;23.192;2023-06-26T12:53:09;5.23;;;4.93;;
12788;SDS011;6458;42.710;23.192;2023-06-26T12:55:36;6.40;;;5.80;;
12788;SDS011;6458;42.710;23.192;2023-06-26T12:58:03;6.27;;;5.77;;
12788;SDS011;6458;42.710;23.192;2023-06-26T13:00:30;6.27;;;5.87;;
12788;SDS011;6458;42.710;23.192;2023-06-26T13:02:57;6.50;;;5.90;;
12788;SDS011;6458;42.710;23.192;2023-06-26T13:05:26;5.90;;;5.50;;
12788;SDS011;6458;42.710;23.192;2023-06-26T13:07:53;5.63;;;5.17;;
12788;SDS011;6458;42.710;23.192;2023-06-26T13:10:20;5.50;;;5.10;;
12788;SDS011;6458;42.710;23.192;2023-06-26T13:12:47;5.20;;;4.90;;
12788;SDS011;6458;42.710;23.192;2023-06-26T13:15:13;5.63;;;5.20;;
12788;SDS011;6458;42.710;23.192;2023-06-26T13:17:40;6.33;;;5.73;;
12788;SDS011;6458;42.710;23.192;2023-06-26T13:20:07;5.77;;;5.30;;
12788;SDS011;6458;42.710;23.192;2023-06-26T13:22:36;6.33;;;5.83;;
12788;SDS011;6458;42.710;23.192;2023-06-26T13:25:03;6.30;;;5.90;;
12788;SDS011;6458;42.710;23.192;2023-06-26T13:27:30;6.47;;;5.37;;
12788;SDS011;6458;42.710;23.192;2023-06-26T13:29:56;5.90;;;5.40;;
12788;SDS011;6458;42.710;23.192;2023-06-26T13:32:23;6.07;;;5.50;;
12788;SDS011;6458;42.710;23.192;2023-06-26T13:34:50;6.40;;;5.90;;
12788;SDS011;6458;42.710;23.192;2023-06-26T13:37:17;5.70;;;5.20;;
12788;SDS011;6458;42.710;23.192;2023-06-26T13:39:45;6.23;;;5.83;;
12788;SDS011;6458;42.710;23.192;2023-06-26T13:42:14;6.47;;;5.97;;
12788;SDS011;6458;42.710;23.192;2023-06-26T13:44:41;7.43;;;6.83;;
12788;SDS011;6458;42.710;23.192;2023-06-26T13:47:08;6.20;;;5.80;;
12788;SDS011;6458;42.710;23.192;2023-06-26T13:49:34;7.20;;;6.60;;
12788;SDS011;6458;42.710;23.192;2023-06-26T13:52:01;6.40;;;6.00;;
12788;SDS011;6458;42.710;23.192;2023-06-26T13:54:28;6.00;;;5.50;;
12788;SDS011;6458;42.710;23.192;2023-06-26T13:56:56;5.93;;;5.53;;
12788;SDS011;6458;42.710;23.192;2023-06-26T13:59:23;6.70;;;6.10;;
12788;SDS011;6458;42.710;23.192;2023-06-26T14:01:50;6.60;;;6.00;;
12788;SDS011;6458;42.710;23.192;2023-06-26T14:04:17;6.57;;;6.10;;
12788;SDS011;6458;42.710;23.192;2023-06-26T14:06:44;6.63;;;6.00;;
12788;SDS011;6458;42.710;23.192;2023-06-26T14:09:11;6.30;;;5.80;;
12788;SDS011;6458;42.710;23.192;2023-06-26T14:11:37;6.43;;;5.87;;
12788;SDS011;6458;42.710;23.192;2023-06-26T14:14:06;6.20;;;5.70;;
12788;SDS011;6458;42.710;23.192;2023-06-26T14:16:32;6.07;;;5.67;;
12788;SDS011;6458;42.710;23.192;2023-06-26T14:18:59;6.50;;;5.90;;
12788;SDS011;6458;42.710;23.192;2023-06-26T14:21:27;7.10;;;5.90;;
12788;SDS011;6458;42.710;23.192;2023-06-26T14:23:54;6.80;;;6.30;;
12788;SDS011;6458;42.710;23.192;2023-06-26T14:26:21;6.57;;;6.03;;
12788;SDS011;6458;42.710;23.192;2023-06-26T14:28:47;6.17;;;5.67;;
12788;SDS011;6458;42.710;23.192;2023-06-26T14:31:15;6.63;;;5.43;;
12788;SDS011;6458;42.710;23.192;2023-06-26T14:33:42;5.97;;;5.40;;
12788;SDS011;6458;42.710;23.192;2023-06-26T14:36:09;5.80;;;5.30;;
12788;SDS011;6458;42.710;23.192;2023-06-26T14:38:35;5.90;;;5.53;;